Weather reports worldwide

Advertisment
Malaga,Cmt, Spain (8481): temperature & dewpoint: 10.01.2018 20:00:00 - 16.01.2018 20:00:00 (CET)Malaga,Cmt, Spain (8481): wind speed & gusts: 10.01.2018 20:00:00 - 16.01.2018 20:00:00 (CET)Malaga,Cmt, Spain (8481): wind direction: 10.01.2018 20:00:00 - 16.01.2018 20:00:00 (CET)Malaga,Cmt, Spain (8481): reduced air pressure: 10.01.2018 20:00:00 - 16.01.2018 20:00:00 (CET)Malaga,Cmt, Spain (8481): precipitation: 10.01.2018 20:00:00 - 16.01.2018 20:00:00 (CET)
Date & Time tt [°C] td [°C] ff [km/h] ff [kn] fx [km/h] fx [kn] dd ppp [hPa] rr [mm]
16.01.2018 20:00:00 - - - - - - - - -
16.01.2018 19:00:00 13,1 7,7 10 6 15 8 ENE 1027,7 -
16.01.2018 18:00:00 15,1 5,6 9 5 16 8 ESE 1027,7 0,0
16.01.2018 17:00:00 16,3 5,6 7 4 14 8 E 1027,8 0,0
16.01.2018 16:00:00 17,3 6,8 8 4 14 8 SE 1028,3 0,0
16.01.2018 15:00:00 17,9 4,8 5 3 11 6 SSW 1029,4 0,0
16.01.2018 14:00:00 16,8 4,1 5 3 10 5 SW 1030,6 0,0
16.01.2018 13:00:00 15,8 3,9 4 2 10 5 S 1032,2 -
16.01.2018 12:00:00 13,5 4,8 6 3 15 8 W 1033,2 0,0
16.01.2018 11:00:00 11,7 5,8 9 5 14 8 WSW 1033,4 0,0
16.01.2018 10:00:00 8,6 5,1 5 3 16 9 NW 1033,2 0,0
16.01.2018 09:00:00 6,3 4,6 9 5 18 10 NW 1032,6 0,0
16.01.2018 08:00:00 6,0 4,6 11 6 18 10 W 1032,3 0,0
16.01.2018 07:00:00 5,1 3,8 8 4 13 7 W 1031,9 -
16.01.2018 06:00:00 5,6 4,1 8 5 14 8 W 1032,1 0,0
16.01.2018 05:00:00 6,3 5,1 7 4 17 9 NW 1032,6 0,0
16.01.2018 04:00:00 5,3 4,1 9 5 16 9 W 1032,7 0,0
16.01.2018 03:00:00 6,1 4,8 6 4 13 7 W 1032,7 0,0
16.01.2018 02:00:00 6,8 5,1 1 0 8 4 W 1032,9 0,0
16.01.2018 01:00:00 7,0 4,8 5 3 8 4 W 1033,3 -
16.01.2018 00:00:00 8,2 5,8 3 2 9 5 NW 1033,3 0,0
15.01.2018 23:00:00 8,2 5,8 4 2 9 5 NW 1032,9 0,0
15.01.2018 22:00:00 8,6 5,1 4 2 11 6 WNW 1032,1 0,0
15.01.2018 21:00:00 10,1 5,5 5 3 10 5 N 1031,3 0,0
15.01.2018 20:00:00 11,2 5,5 1 1 4 2 NNW 1030,5 0,0
15.01.2018 19:00:00 11,9 4,8 4 2 11 6 SE 1029,3 -
15.01.2018 18:00:00 13,4 4,8 6 3 14 8 ESE 1028,8 0,0
15.01.2018 17:00:00 14,6 5,9 6 4 16 9 SE 1028,3 0,0
15.01.2018 16:00:00 15,1 5,6 9 5 18 10 SE 1027,6 0,0
15.01.2018 15:00:00 14,3 5,6 8 5 17 9 SE 1027,3 0,0
15.01.2018 14:00:00 15,1 5,6 6 3 19 10 SSE 1027,5 0,0
15.01.2018 13:00:00 13,2 5,3 4 2 16 9 W 1028,1 -
15.01.2018 12:00:00 11,2 4,1 11 6 17 9 W 1028,3 0,0
15.01.2018 11:00:00 9,9 4,6 10 5 19 10 W 1027,5 0,0
15.01.2018 10:00:00 7,6 3,8 9 5 15 8 W 1026,6 0,0
15.01.2018 09:00:00 6,1 3,2 6 4 18 10 WNW 1025,9 0,0
15.01.2018 08:00:00 6,4 3,2 8 4 19 11 WNW 1025,1 0,0
15.01.2018 07:00:00 6,2 3,4 7 4 14 8 NW 1024,1 -
15.01.2018 06:00:00 7,0 3,8 8 4 18 10 WNW 1023,4 0,0
15.01.2018 05:00:00 6,8 3,9 10 5 18 10 W 1023,1 0,0
15.01.2018 04:00:00 6,9 3,8 13 7 29 15 W 1023,1 0,0
15.01.2018 03:00:00 8,3 3,4 13 7 23 12 W 1022,6 0,0
15.01.2018 02:00:00 8,4 3,8 14 8 26 14 WNW 1022,7 0,0
15.01.2018 01:00:00 7,6 5,0 6 3 23 12 W 1023,4 -
15.01.2018 00:00:00 7,0 4,3 8 5 14 8 W 1023,6 0,0
14.01.2018 23:00:00 7,9 4,1 1 1 15 8 NW 1023,2 0,0
14.01.2018 22:00:00 9,0 5,0 3 1 24 13 NNW 1022,6 0,0
14.01.2018 21:00:00 8,7 5,5 3 1 11 6 N 1022,3 0,0
14.01.2018 20:00:00 9,0 6,1 3 2 9 5 NNW 1021,7 0,0
14.01.2018 19:00:00 9,9 7,1 1 1 10 5 WNW 1020,9 -
14.01.2018 18:00:00 11,4 8,9 1 0 9 5 W 1020,5 0,0
14.01.2018 17:00:00 10,9 9,9 5 3 11 6 W 1020,2 0,0
14.01.2018 16:00:00 11,0 10,0 6 3 10 5 WSW 1020,3 0,0
14.01.2018 15:00:00 10,2 9,3 5 3 10 5 N 1020,3 0,3
14.01.2018 14:00:00 9,8 8,8 3 2 9 5 W 1021,4 1,0
14.01.2018 13:00:00 10,3 9,0 6 3 10 5 WSW 1022,3 -
14.01.2018 12:00:00 9,6 7,8 3 2 12 6 WNW 1023,0 0,3
14.01.2018 11:00:00 9,5 7,3 9 5 12 7 W 1023,0 0,0
14.01.2018 10:00:00 8,4 6,2 3 2 10 5 W 1022,7 0,0
14.01.2018 09:00:00 7,8 5,1 6 3 14 8 NW 1022,4 0,0
14.01.2018 08:00:00 8,4 5,5 5 3 10 5 NNW 1022,3 0,0
14.01.2018 07:00:00 9,4 5,6 4 2 14 8 N 1022,2 -
14.01.2018 06:00:00 10,1 6,2 6 3 17 9 NNW 1022,4 0,0
14.01.2018 05:00:00 9,3 5,8 9 5 14 8 NW 1023,0 0,0
14.01.2018 04:00:00 9,5 5,6 8 5 14 7 WNW 1023,3 0,0
14.01.2018 03:00:00 9,9 6,4 8 4 15 8 WNW 1023,4 0,0
14.01.2018 02:00:00 9,1 5,8 5 3 6 4 NW 1023,7 0,0
14.01.2018 01:00:00 9,3 5,8 3 1 10 5 W 1024,1 -
14.01.2018 00:00:00 10,1 6,1 2 1 8 4 N 1024,2 0,0
13.01.2018 23:00:00 11,0 6,4 2 1 13 7 NNW 1023,9 0,0
13.01.2018 22:00:00 11,0 7,1 5 3 14 7 NNW 1023,5 0,0
13.01.2018 21:00:00 9,2 6,8 1 1 14 8 SSE 1023,2 0,0
13.01.2018 20:00:00 10,7 7,1 4 2 9 5 NNW 1022,6 0,0
13.01.2018 19:00:00 11,8 6,7 0 0 4 2 W 1022,2 -
13.01.2018 18:00:00 13,0 7,3 0 0 6 3 N 1021,9 0,0
13.01.2018 17:00:00 13,0 6,5 4 2 9 5 NE 1021,7 0,0
13.01.2018 16:00:00 13,9 7,1 5 3 9 5 SSE 1021,4 0,0
13.01.2018 15:00:00 14,0 6,8 1 1 9 5 SSW 1021,8 0,0
13.01.2018 14:00:00 14,1 7,6 5 3 9 5 S 1022,4 0,0
13.01.2018 13:00:00 10,2 5,6 3 2 10 5 WNW 1023,7 -
13.01.2018 12:00:00 9,6 5,1 6 3 14 8 WSW 1024,1 0,0
13.01.2018 11:00:00 9,4 4,6 7 4 11 6 WSW 1024,3 0,0
13.01.2018 10:00:00 6,3 3,0 6 3 8 4 W 1023,8 0,0
13.01.2018 09:00:00 6,4 2,1 5 3 14 7 W 1023,8 0,0
13.01.2018 08:00:00 7,0 3,2 5 3 11 6 NW 1023,4 0,0
13.01.2018 07:00:00 5,8 3,0 9 5 13 7 W 1023,3 -
13.01.2018 06:00:00 5,9 2,7 6 3 13 7 W 1023,1 0,0
13.01.2018 05:00:00 5,6 2,9 5 3 10 6 W 1023,8 0,0
13.01.2018 04:00:00 5,5 2,9 1 1 11 6 NNW 1024,2 0,0
13.01.2018 03:00:00 6,0 2,9 1 1 8 4 NW 1024,4 0,0
13.01.2018 02:00:00 6,3 2,5 0 0 9 5 WNW 1025,2 0,0
13.01.2018 01:00:00 8,0 2,5 1 1 9 5 NW 1025,5 -
13.01.2018 00:00:00 7,7 3,2 5 3 8 4 NW 1026,0 0,0
12.01.2018 23:00:00 8,3 2,1 3 2 12 6 W 1026,0 0,0
12.01.2018 22:00:00 9,3 1,7 0 0 8 4 N 1026,1 0,0
12.01.2018 21:00:00 9,7 1,3 2 1 5 3 NNW 1026,3 0,0
12.01.2018 20:00:00 11,4 0,2 4 2 6 4 NE 1025,7 0,0
12.01.2018 19:00:00 12,7 -0,3 1 0 8 4 ESE 1025,5 -
12.01.2018 18:00:00 14,1 0,6 5 3 11 6 SE 1025,5 0,0
12.01.2018 17:00:00 15,9 0,4 4 2 12 7 ESE 1025,4 0,0
12.01.2018 16:00:00 16,3 1,5 5 3 14 8 SE 1025,5 0,0
12.01.2018 15:00:00 16,4 1,3 8 4 16 8 ESE 1025,6 0,0
12.01.2018 14:00:00 17,5 1,9 5 3 11 6 SSW 1026,2 0,0
12.01.2018 13:00:00 16,5 2,9 5 3 11 6 SW 1027,2 -
12.01.2018 12:00:00 14,8 4,1 6 4 13 7 W 1028,5 0,0
12.01.2018 11:00:00 12,0 3,9 9 5 18 10 WNW 1028,7 0,0
12.01.2018 10:00:00 9,9 3,6 7 4 24 13 WNW 1028,0 0,0
12.01.2018 09:00:00 8,9 3,2 12 6 34 18 W 1027,2 0,0
12.01.2018 08:00:00 8,9 3,2 20 11 33 18 W 1026,6 0,0
12.01.2018 07:00:00 9,1 3,4 14 8 23 13 W 1027,0 -
12.01.2018 06:00:00 9,3 3,8 11 6 22 12 WNW 1027,2 0,0
12.01.2018 05:00:00 9,1 3,4 5 3 13 7 NNW 1027,9 0,0
12.01.2018 04:00:00 9,5 3,9 5 3 11 6 N 1028,4 0,0
12.01.2018 03:00:00 9,7 4,1 4 2 12 6 NNW 1028,7 0,0
12.01.2018 02:00:00 10,1 3,8 5 3 12 7 NNW 1028,7 0,0
12.01.2018 01:00:00 10,6 3,4 0 0 16 8 WSW 1029,0 -
12.01.2018 00:00:00 11,8 3,8 8 4 21 11 WNW 1028,9 0,0
11.01.2018 23:00:00 12,4 3,6 9 5 25 14 WNW 1028,7 0,0
11.01.2018 22:00:00 12,9 4,3 13 7 28 15 WNW 1028,2 0,0
11.01.2018 21:00:00 12,7 4,1 5 3 27 15 NW 1027,9 0,0
11.01.2018 20:00:00 13,6 4,1 12 7 26 14 WNW 1027,5 0,0
11.01.2018 19:00:00 13,8 4,1 15 8 29 15 WNW 1026,4 -
11.01.2018 18:00:00 14,9 4,3 14 8 36 20 NW 1025,8 0,0
11.01.2018 17:00:00 15,1 5,3 16 8 39 21 WNW 1025,9 0,0
11.01.2018 16:00:00 14,9 4,6 12 7 36 19 NW 1026,1 0,0
11.01.2018 15:00:00 15,5 4,5 18 10 39 21 WNW 1026,2 0,0
11.01.2018 14:00:00 15,3 5,5 14 8 35 19 NW 1027,1 0,0
11.01.2018 13:00:00 15,0 5,5 21 12 36 19 WNW 1028,4 -
11.01.2018 12:00:00 13,9 4,8 15 8 39 21 WNW 1029,1 0,0
11.01.2018 11:00:00 13,0 4,5 12 7 35 19 NW 1029,2 0,0
11.01.2018 10:00:00 11,3 4,1 13 7 21 12 WNW 1028,6 0,0
11.01.2018 09:00:00 10,0 3,8 6 4 18 10 WNW 1028,6 0,0
11.01.2018 08:00:00 10,1 3,6 5 3 26 14 WNW 1028,3 0,0
11.01.2018 07:00:00 10,6 4,1 6 4 22 12 WNW 1027,9 -
11.01.2018 06:00:00 11,1 5,1 8 4 19 10 WNW 1027,3 0,0
11.01.2018 05:00:00 11,8 5,5 3 2 24 13 WSW 1027,3 0,0
11.01.2018 04:00:00 12,5 5,1 10 5 39 21 WNW 1027,2 0,0
11.01.2018 03:00:00 12,9 4,8 15 8 29 16 WNW 1026,9 0,0
11.01.2018 02:00:00 13,4 6,1 12 7 32 17 WNW 1027,0 0,0
11.01.2018 01:00:00 - - - - - - - - -
11.01.2018 00:00:00 15,0 6,8 13 7 33 18 WNW 1026,7 0,0
10.01.2018 23:00:00 14,1 7,6 3 1 6 3 NE 1025,8 0,0
10.01.2018 22:00:00 14,7 7,3 2 1 10 6 ENE 1025,2 0,0
10.01.2018 21:00:00 15,0 7,6 3 1 13 7 N 1025,1 0,0
10.01.2018 20:00:00 15,4 7,1 5 3 11 6 NW 1025,0 0,0

tt = temperature
td = dewpoint
ff = wind speed
fx = gusts
dd = wind direction
ppp = reduced air pressure
rr = precipitation

Next stations